sensor_id;sensor_type;location;lat;lon;timestamp;P1;durP1;ratioP1;P2;durP2;ratioP2
24435;SDS011;12616;52.470;13.436;2023-02-15T00:01:06;30.88;;;18.58;;
24435;SDS011;12616;52.470;13.436;2023-02-15T00:03:33;35.88;;;20.58;;
24435;SDS011;12616;52.470;13.436;2023-02-15T00:06:00;32.05;;;19.35;;
24435;SDS011;12616;52.470;13.436;2023-02-15T00:08:27;32.25;;;20.60;;
24435;SDS011;12616;52.470;13.436;2023-02-15T00:11:02;36.83;;;20.98;;
24435;SDS011;12616;52.470;13.436;2023-02-15T00:13:30;36.20;;;20.65;;
24435;SDS011;12616;52.470;13.436;2023-02-15T00:15:59;40.83;;;22.45;;
24435;SDS011;12616;52.470;13.436;2023-02-15T00:18:28;38.45;;;22.27;;
24435;SDS011;12616;52.470;13.436;2023-02-15T00:20:55;38.85;;;21.92;;
24435;SDS011;12616;52.470;13.436;2023-02-15T00:23:22;33.60;;;20.23;;
24435;SDS011;12616;52.470;13.436;2023-02-15T00:25:49;42.45;;;21.27;;
24435;SDS011;12616;52.470;13.436;2023-02-15T00:28:16;31.98;;;21.20;;
24435;SDS011;12616;52.470;13.436;2023-02-15T00:30:42;36.80;;;21.45;;
24435;SDS011;12616;52.470;13.436;2023-02-15T00:33:09;44.67;;;22.15;;
24435;SDS011;12616;52.470;13.436;2023-02-15T00:35:37;33.47;;;20.48;;
24435;SDS011;12616;52.470;13.436;2023-02-15T00:38:04;37.60;;;19.88;;
24435;SDS011;12616;52.470;13.436;2023-02-15T00:40:31;39.83;;;22.17;;
24435;SDS011;12616;52.470;13.436;2023-02-15T00:42:58;36.15;;;20.73;;
24435;SDS011;12616;52.470;13.436;2023-02-15T00:45:25;39.97;;;21.38;;
24435;SDS011;12616;52.470;13.436;2023-02-15T00:47:52;36.30;;;18.98;;
24435;SDS011;12616;52.470;13.436;2023-02-15T00:50:19;46.80;;;21.83;;
24435;SDS011;12616;52.470;13.436;2023-02-15T00:52:47;34.83;;;19.65;;
24435;SDS011;12616;52.470;13.436;2023-02-15T00:55:14;35.70;;;20.75;;
24435;SDS011;12616;52.470;13.436;2023-02-15T00:57:41;42.40;;;21.95;;
24435;SDS011;12616;52.470;13.436;2023-02-15T01:00:08;38.70;;;20.92;;
24435;SDS011;12616;52.470;13.436;2023-02-15T01:02:36;48.92;;;22.88;;
24435;SDS011;12616;52.470;13.436;2023-02-15T01:05:02;39.85;;;20.48;;
24435;SDS011;12616;52.470;13.436;2023-02-15T01:07:30;37.60;;;21.63;;
24435;SDS011;12616;52.470;13.436;2023-02-15T01:09:59;35.72;;;19.83;;
24435;SDS011;12616;52.470;13.436;2023-02-15T01:12:26;39.95;;;21.92;;
24435;SDS011;12616;52.470;13.436;2023-02-15T01:14:52;40.35;;;21.75;;
24435;SDS011;12616;52.470;13.436;2023-02-15T01:17:19;37.00;;;21.30;;
24435;SDS011;12616;52.470;13.436;2023-02-15T01:19:46;42.55;;;22.38;;
24435;SDS011;12616;52.470;13.436;2023-02-15T01:22:13;39.30;;;20.73;;
24435;SDS011;12616;52.470;13.436;2023-02-15T01:24:40;42.85;;;22.42;;
24435;SDS011;12616;52.470;13.436;2023-02-15T01:27:08;44.17;;;22.73;;
24435;SDS011;12616;52.470;13.436;2023-02-15T01:29:35;52.13;;;23.90;;
24435;SDS011;12616;52.470;13.436;2023-02-15T01:32:02;42.83;;;21.85;;
24435;SDS011;12616;52.470;13.436;2023-02-15T01:34:29;42.08;;;22.95;;
24435;SDS011;12616;52.470;13.436;2023-02-15T01:36:56;46.65;;;24.58;;
24435;SDS011;12616;52.470;13.436;2023-02-15T01:39:23;42.17;;;20.75;;
24435;SDS011;12616;52.470;13.436;2023-02-15T01:41:50;46.05;;;24.33;;
24435;SDS011;12616;52.470;13.436;2023-02-15T01:47:25;45.88;;;22.90;;
24435;SDS011;12616;52.470;13.436;2023-02-15T01:50:00;46.88;;;24.50;;
24435;SDS011;12616;52.470;13.436;2023-02-15T01:52:32;45.85;;;23.58;;
24435;SDS011;12616;52.470;13.436;2023-02-15T01:55:03;44.05;;;23.45;;
24435;SDS011;12616;52.470;13.436;2023-02-15T01:57:31;42.25;;;23.30;;
24435;SDS011;12616;52.470;13.436;2023-02-15T01:59:59;41.40;;;22.50;;
24435;SDS011;12616;52.470;13.436;2023-02-15T02:02:29;40.45;;;23.40;;
24435;SDS011;12616;52.470;13.436;2023-02-15T02:04:58;45.95;;;23.35;;
24435;SDS011;12616;52.470;13.436;2023-02-15T02:07:28;46.45;;;23.95;;
24435;SDS011;12616;52.470;13.436;2023-02-15T02:09:59;50.25;;;24.10;;
24435;SDS011;12616;52.470;13.436;2023-02-15T02:12:27;50.90;;;25.25;;
24435;SDS011;12616;52.470;13.436;2023-02-15T02:14:53;45.70;;;24.17;;
24435;SDS011;12616;52.470;13.436;2023-02-15T02:17:22;49.05;;;26.88;;
24435;SDS011;12616;52.470;13.436;2023-02-15T02:20:04;37.42;;;21.90;;
24435;SDS011;12616;52.470;13.436;2023-02-15T02:23:04;47.72;;;23.20;;
24435;SDS011;12616;52.470;13.436;2023-02-15T02:32:14;63.05;;;28.92;;
24435;SDS011;12616;52.470;13.436;2023-02-15T02:35:03;59.20;;;28.98;;
24435;SDS011;12616;52.470;13.436;2023-02-15T02:37:41;53.40;;;27.50;;
24435;SDS011;12616;52.470;13.436;2023-02-15T02:40:16;68.68;;;28.92;;
24435;SDS011;12616;52.470;13.436;2023-02-15T02:42:48;57.33;;;29.02;;
24435;SDS011;12616;52.470;13.436;2023-02-15T02:45:20;55.42;;;28.10;;
24435;SDS011;12616;52.470;13.436;2023-02-15T02:47:53;61.95;;;27.27;;
24435;SDS011;12616;52.470;13.436;2023-02-15T02:50:27;63.45;;;29.80;;
24435;SDS011;12616;52.470;13.436;2023-02-15T02:52:56;60.47;;;29.67;;
24435;SDS011;12616;52.470;13.436;2023-02-15T02:55:25;61.90;;;27.85;;
24435;SDS011;12616;52.470;13.436;2023-02-15T02:57:57;51.72;;;26.95;;
24435;SDS011;12616;52.470;13.436;2023-02-15T03:00:29;56.70;;;26.05;;
24435;SDS011;12616;52.470;13.436;2023-02-15T03:03:00;57.60;;;28.17;;
24435;SDS011;12616;52.470;13.436;2023-02-15T03:05:33;59.13;;;26.02;;
24435;SDS011;12616;52.470;13.436;2023-02-15T03:08:03;61.05;;;28.48;;
24435;SDS011;12616;52.470;13.436;2023-02-15T03:10:35;62.60;;;26.83;;
24435;SDS011;12616;52.470;13.436;2023-02-15T03:13:04;63.35;;;28.02;;
24435;SDS011;12616;52.470;13.436;2023-02-15T03:15:31;65.88;;;31.00;;
24435;SDS011;12616;52.470;13.436;2023-02-15T03:18:15;53.08;;;27.77;;
24435;SDS011;12616;52.470;13.436;2023-02-15T03:20:45;64.45;;;29.33;;
24435;SDS011;12616;52.470;13.436;2023-02-15T03:23:15;55.85;;;27.50;;
24435;SDS011;12616;52.470;13.436;2023-02-15T03:25:46;71.50;;;28.25;;
24435;SDS011;12616;52.470;13.436;2023-02-15T03:28:18;62.33;;;30.58;;
24435;SDS011;12616;52.470;13.436;2023-02-15T03:30:51;59.42;;;29.10;;
24435;SDS011;12616;52.470;13.436;2023-02-15T03:33:21;62.75;;;29.02;;
24435;SDS011;12616;52.470;13.436;2023-02-15T03:35:52;63.20;;;29.30;;
24435;SDS011;12616;52.470;13.436;2023-02-15T03:38:25;51.88;;;28.70;;
24435;SDS011;12616;52.470;13.436;2023-02-15T03:40:59;65.32;;;28.85;;
24435;SDS011;12616;52.470;13.436;2023-02-15T03:43:38;63.15;;;29.70;;
24435;SDS011;12616;52.470;13.436;2023-02-15T03:46:12;66.18;;;29.58;;
24435;SDS011;12616;52.470;13.436;2023-02-15T03:48:44;57.83;;;28.52;;
24435;SDS011;12616;52.470;13.436;2023-02-15T03:51:18;61.97;;;28.80;;
24435;SDS011;12616;52.470;13.436;2023-02-15T03:54:02;66.82;;;27.60;;
24435;SDS011;12616;52.470;13.436;2023-02-15T03:56:33;68.07;;;28.48;;
24435;SDS011;12616;52.470;13.436;2023-02-15T03:59:01;69.85;;;31.75;;
24435;SDS011;12616;52.470;13.436;2023-02-15T04:01:47;57.97;;;26.50;;
24435;SDS011;12616;52.470;13.436;2023-02-15T04:04:27;60.10;;;30.00;;
24435;SDS011;12616;52.470;13.436;2023-02-15T04:07:00;54.13;;;26.88;;
24435;SDS011;12616;52.470;13.436;2023-02-15T04:09:28;62.90;;;27.65;;
24435;SDS011;12616;52.470;13.436;2023-02-15T04:12:12;61.45;;;26.67;;
24435;SDS011;12616;52.470;13.436;2023-02-15T04:14:39;64.82;;;29.15;;
24435;SDS011;12616;52.470;13.436;2023-02-15T04:17:23;62.78;;;28.60;;
24435;SDS011;12616;52.470;13.436;2023-02-15T04:19:50;62.72;;;27.42;;
24435;SDS011;12616;52.470;13.436;2023-02-15T04:22:36;59.75;;;30.48;;
24435;SDS011;12616;52.470;13.436;2023-02-15T04:25:20;61.03;;;29.65;;
24435;SDS011;12616;52.470;13.436;2023-02-15T04:27:49;63.25;;;30.73;;
24435;SDS011;12616;52.470;13.436;2023-02-15T04:30:18;65.43;;;30.33;;
24435;SDS011;12616;52.470;13.436;2023-02-15T04:32:47;60.75;;;28.77;;
24435;SDS011;12616;52.470;13.436;2023-02-15T04:35:14;71.80;;;29.33;;
24435;SDS011;12616;52.470;13.436;2023-02-15T04:37:43;61.65;;;27.98;;
24435;SDS011;12616;52.470;13.436;2023-02-15T04:40:11;58.92;;;30.10;;
24435;SDS011;12616;52.470;13.436;2023-02-15T04:42:39;59.55;;;31.60;;
24435;SDS011;12616;52.470;13.436;2023-02-15T04:45:06;61.40;;;30.00;;
24435;SDS011;12616;52.470;13.436;2023-02-15T04:47:34;74.47;;;31.30;;
24435;SDS011;12616;52.470;13.436;2023-02-15T04:50:01;60.65;;;28.55;;
24435;SDS011;12616;52.470;13.436;2023-02-15T04:52:28;52.72;;;27.85;;
24435;SDS011;12616;52.470;13.436;2023-02-15T04:54:56;61.63;;;27.80;;
24435;SDS011;12616;52.470;13.436;2023-02-15T04:57:23;57.33;;;28.65;;
24435;SDS011;12616;52.470;13.436;2023-02-15T04:59:50;54.33;;;25.63;;
24435;SDS011;12616;52.470;13.436;2023-02-15T05:02:16;66.03;;;28.70;;
24435;SDS011;12616;52.470;13.436;2023-02-15T05:04:43;49.72;;;27.52;;
24435;SDS011;12616;52.470;13.436;2023-02-15T05:07:10;61.90;;;28.02;;
24435;SDS011;12616;52.470;13.436;2023-02-15T05:09:37;62.42;;;29.05;;
24435;SDS011;12616;52.470;13.436;2023-02-15T05:12:06;54.00;;;26.23;;
24435;SDS011;12616;52.470;13.436;2023-02-15T05:14:33;58.28;;;25.70;;
24435;SDS011;12616;52.470;13.436;2023-02-15T05:17:00;61.65;;;28.80;;
24435;SDS011;12616;52.470;13.436;2023-02-15T05:19:28;62.28;;;26.55;;
24435;SDS011;12616;52.470;13.436;2023-02-15T05:21:55;53.65;;;25.88;;
24435;SDS011;12616;52.470;13.436;2023-02-15T05:24:22;59.30;;;26.45;;
24435;SDS011;12616;52.470;13.436;2023-02-15T05:27:08;54.33;;;24.80;;
24435;SDS011;12616;52.470;13.436;2023-02-15T05:29:54;56.88;;;26.48;;
24435;SDS011;12616;52.470;13.436;2023-02-15T05:32:21;55.58;;;25.52;;
24435;SDS011;12616;52.470;13.436;2023-02-15T05:34:48;65.60;;;25.98;;
24435;SDS011;12616;52.470;13.436;2023-02-15T05:37:15;69.97;;;31.08;;
24435;SDS011;12616;52.470;13.436;2023-02-15T05:39:42;56.78;;;28.17;;
24435;SDS011;12616;52.470;13.436;2023-02-15T05:42:10;67.07;;;26.73;;
24435;SDS011;12616;52.470;13.436;2023-02-15T05:44:37;65.53;;;29.90;;
24435;SDS011;12616;52.470;13.436;2023-02-15T05:47:04;85.80;;;33.45;;
24435;SDS011;12616;52.470;13.436;2023-02-15T05:49:32;79.93;;;32.75;;
24435;SDS011;12616;52.470;13.436;2023-02-15T05:51:59;84.40;;;37.15;;
24435;SDS011;12616;52.470;13.436;2023-02-15T05:54:26;85.55;;;36.30;;
24435;SDS011;12616;52.470;13.436;2023-02-15T05:56:54;71.22;;;32.45;;
24435;SDS011;12616;52.470;13.436;2023-02-15T05:59:22;76.93;;;29.40;;
24435;SDS011;12616;52.470;13.436;2023-02-15T06:01:49;76.15;;;32.85;;
24435;SDS011;12616;52.470;13.436;2023-02-15T06:04:16;76.40;;;29.95;;
24435;SDS011;12616;52.470;13.436;2023-02-15T06:06:43;68.75;;;31.30;;
24435;SDS011;12616;52.470;13.436;2023-02-15T06:09:10;111.03;;;31.17;;
24435;SDS011;12616;52.470;13.436;2023-02-15T06:11:37;96.57;;;30.63;;
24435;SDS011;12616;52.470;13.436;2023-02-15T06:14:04;65.25;;;28.83;;
24435;SDS011;12616;52.470;13.436;2023-02-15T06:16:32;84.35;;;29.58;;
24435;SDS011;12616;52.470;13.436;2023-02-15T06:18:59;73.82;;;32.83;;
24435;SDS011;12616;52.470;13.436;2023-02-15T06:21:26;77.78;;;30.73;;
24435;SDS011;12616;52.470;13.436;2023-02-15T06:23:53;90.53;;;33.50;;
24435;SDS011;12616;52.470;13.436;2023-02-15T06:26:20;71.65;;;30.20;;
24435;SDS011;12616;52.470;13.436;2023-02-15T06:28:47;90.75;;;31.50;;
24435;SDS011;12616;52.470;13.436;2023-02-15T06:31:14;79.93;;;33.47;;
24435;SDS011;12616;52.470;13.436;2023-02-15T06:33:42;107.35;;;32.53;;
24435;SDS011;12616;52.470;13.436;2023-02-15T06:36:09;87.40;;;31.17;;
24435;SDS011;12616;52.470;13.436;2023-02-15T06:38:37;74.43;;;29.30;;
24435;SDS011;12616;52.470;13.436;2023-02-15T06:41:05;90.93;;;33.83;;
24435;SDS011;12616;52.470;13.436;2023-02-15T06:43:32;78.07;;;32.47;;
24435;SDS011;12616;52.470;13.436;2023-02-15T06:46:00;77.30;;;30.75;;
24435;SDS011;12616;52.470;13.436;2023-02-15T06:48:26;68.50;;;29.98;;
24435;SDS011;12616;52.470;13.436;2023-02-15T06:50:55;81.22;;;29.23;;
24435;SDS011;12616;52.470;13.436;2023-02-15T06:53:22;75.30;;;32.47;;
24435;SDS011;12616;52.470;13.436;2023-02-15T06:55:48;82.00;;;30.88;;
24435;SDS011;12616;52.470;13.436;2023-02-15T06:58:15;83.45;;;30.50;;
24435;SDS011;12616;52.470;13.436;2023-02-15T07:00:42;95.28;;;30.77;;
24435;SDS011;12616;52.470;13.436;2023-02-15T07:03:09;82.32;;;33.25;;
24435;SDS011;12616;52.470;13.436;2023-02-15T07:05:40;80.00;;;31.77;;
24435;SDS011;12616;52.470;13.436;2023-02-15T07:08:09;79.68;;;32.67;;
24435;SDS011;12616;52.470;13.436;2023-02-15T07:10:36;86.25;;;32.50;;
24435;SDS011;12616;52.470;13.436;2023-02-15T07:13:03;83.63;;;33.45;;
24435;SDS011;12616;52.470;13.436;2023-02-15T07:15:29;70.60;;;31.27;;
24435;SDS011;12616;52.470;13.436;2023-02-15T07:17:57;74.55;;;27.52;;
24435;SDS011;12616;52.470;13.436;2023-02-15T07:20:24;84.68;;;30.60;;
24435;SDS011;12616;52.470;13.436;2023-02-15T07:22:51;85.47;;;28.63;;
24435;SDS011;12616;52.470;13.436;2023-02-15T07:25:20;71.03;;;31.55;;
24435;SDS011;12616;52.470;13.436;2023-02-15T07:27:47;71.47;;;28.98;;
24435;SDS011;12616;52.470;13.436;2023-02-15T07:30:14;77.30;;;28.40;;
24435;SDS011;12616;52.470;13.436;2023-02-15T07:32:42;75.30;;;32.30;;
24435;SDS011;12616;52.470;13.436;2023-02-15T07:35:27;74.82;;;28.30;;
24435;SDS011;12616;52.470;13.436;2023-02-15T07:37:54;98.97;;;39.50;;
24435;SDS011;12616;52.470;13.436;2023-02-15T07:40:23;93.32;;;36.92;;
24435;SDS011;12616;52.470;13.436;2023-02-15T07:42:50;85.50;;;32.20;;
24435;SDS011;12616;52.470;13.436;2023-02-15T07:45:19;74.50;;;29.40;;
24435;SDS011;12616;52.470;13.436;2023-02-15T07:47:47;69.35;;;28.55;;
24435;SDS011;12616;52.470;13.436;2023-02-15T07:50:14;82.15;;;29.08;;
24435;SDS011;12616;52.470;13.436;2023-02-15T07:52:41;81.78;;;30.33;;
24435;SDS011;12616;52.470;13.436;2023-02-15T07:55:08;72.40;;;30.70;;
24435;SDS011;12616;52.470;13.436;2023-02-15T07:57:39;68.50;;;28.15;;
24435;SDS011;12616;52.470;13.436;2023-02-15T08:00:08;63.30;;;28.77;;
24435;SDS011;12616;52.470;13.436;2023-02-15T08:02:36;79.15;;;32.47;;
24435;SDS011;12616;52.470;13.436;2023-02-15T08:05:04;81.15;;;28.65;;
24435;SDS011;12616;52.470;13.436;2023-02-15T08:07:31;62.33;;;26.83;;
24435;SDS011;12616;52.470;13.436;2023-02-15T08:09:58;65.70;;;29.67;;
24435;SDS011;12616;52.470;13.436;2023-02-15T08:12:25;59.28;;;27.33;;
24435;SDS011;12616;52.470;13.436;2023-02-15T08:14:54;60.20;;;26.60;;
24435;SDS011;12616;52.470;13.436;2023-02-15T08:17:20;63.58;;;28.48;;
24435;SDS011;12616;52.470;13.436;2023-02-15T08:19:48;62.20;;;26.98;;
24435;SDS011;12616;52.470;13.436;2023-02-15T08:22:15;58.65;;;26.95;;
24435;SDS011;12616;52.470;13.436;2023-02-15T08:24:42;52.88;;;24.42;;
24435;SDS011;12616;52.470;13.436;2023-02-15T08:27:10;65.70;;;27.20;;
24435;SDS011;12616;52.470;13.436;2023-02-15T08:29:37;61.45;;;28.52;;
24435;SDS011;12616;52.470;13.436;2023-02-15T08:32:09;59.85;;;27.13;;
24435;SDS011;12616;52.470;13.436;2023-02-15T08:34:38;58.47;;;24.83;;
24435;SDS011;12616;52.470;13.436;2023-02-15T08:37:06;64.20;;;24.73;;
24435;SDS011;12616;52.470;13.436;2023-02-15T08:39:34;58.10;;;24.38;;
24435;SDS011;12616;52.470;13.436;2023-02-15T08:42:01;72.55;;;29.35;;
24435;SDS011;12616;52.470;13.436;2023-02-15T08:44:29;58.67;;;27.70;;
24435;SDS011;12616;52.470;13.436;2023-02-15T08:46:55;65.25;;;29.40;;
24435;SDS011;12616;52.470;13.436;2023-02-15T08:49:29;52.97;;;26.52;;
24435;SDS011;12616;52.470;13.436;2023-02-15T08:51:56;55.10;;;25.67;;
24435;SDS011;12616;52.470;13.436;2023-02-15T08:54:23;59.63;;;24.88;;
24435;SDS011;12616;52.470;13.436;2023-02-15T08:56:50;52.95;;;26.08;;
24435;SDS011;12616;52.470;13.436;2023-02-15T08:59:17;48.92;;;24.23;;
24435;SDS011;12616;52.470;13.436;2023-02-15T09:01:46;51.08;;;22.77;;
24435;SDS011;12616;52.470;13.436;2023-02-15T09:04:13;46.05;;;23.08;;
24435;SDS011;12616;52.470;13.436;2023-02-15T09:06:42;49.08;;;23.38;;
24435;SDS011;12616;52.470;13.436;2023-02-15T09:09:10;50.55;;;21.73;;
24435;SDS011;12616;52.470;13.436;2023-02-15T09:11:38;47.42;;;25.20;;
24435;SDS011;12616;52.470;13.436;2023-02-15T09:14:07;50.28;;;22.48;;
24435;SDS011;12616;52.470;13.436;2023-02-15T09:16:38;45.00;;;22.13;;
24435;SDS011;12616;52.470;13.436;2023-02-15T09:19:06;54.33;;;23.77;;
24435;SDS011;12616;52.470;13.436;2023-02-15T09:21:35;49.40;;;22.13;;
24435;SDS011;12616;52.470;13.436;2023-02-15T09:24:08;37.40;;;20.58;;
24435;SDS011;12616;52.470;13.436;2023-02-15T09:26:36;45.25;;;22.33;;
24435;SDS011;12616;52.470;13.436;2023-02-15T09:29:05;46.05;;;22.33;;
24435;SDS011;12616;52.470;13.436;2023-02-15T09:31:33;45.55;;;21.77;;
24435;SDS011;12616;52.470;13.436;2023-02-15T09:34:03;64.53;;;23.98;;
24435;SDS011;12616;52.470;13.436;2023-02-15T09:36:31;43.92;;;24.33;;
24435;SDS011;12616;52.470;13.436;2023-02-15T09:39:00;40.92;;;23.55;;
24435;SDS011;12616;52.470;13.436;2023-02-15T09:41:36;39.85;;;19.92;;
24435;SDS011;12616;52.470;13.436;2023-02-15T09:44:26;44.83;;;22.17;;
24435;SDS011;12616;52.470;13.436;2023-02-15T09:47:13;40.05;;;21.60;;
24435;SDS011;12616;52.470;13.436;2023-02-15T09:49:57;42.75;;;21.95;;
24435;SDS011;12616;52.470;13.436;2023-02-15T09:52:43;43.80;;;22.38;;
24435;SDS011;12616;52.470;13.436;2023-02-15T09:55:36;41.65;;;22.02;;
24435;SDS011;12616;52.470;13.436;2023-02-15T09:58:14;44.95;;;20.02;;
24435;SDS011;12616;52.470;13.436;2023-02-15T10:00:50;46.63;;;21.05;;
24435;SDS011;12616;52.470;13.436;2023-02-15T10:03:29;42.53;;;20.65;;
24435;SDS011;12616;52.470;13.436;2023-02-15T10:06:20;45.03;;;22.50;;
24435;SDS011;12616;52.470;13.436;2023-02-15T10:09:10;37.05;;;20.08;;
24435;SDS011;12616;52.470;13.436;2023-02-15T10:11:51;43.67;;;22.30;;
24435;SDS011;12616;52.470;13.436;2023-02-15T10:14:33;35.22;;;20.92;;
24435;SDS011;12616;52.470;13.436;2023-02-15T10:17:25;43.67;;;23.42;;
24435;SDS011;12616;52.470;13.436;2023-02-15T10:20:06;36.88;;;19.77;;
24435;SDS011;12616;52.470;13.436;2023-02-15T10:22:47;37.47;;;20.42;;
24435;SDS011;12616;52.470;13.436;2023-02-15T10:25:28;39.90;;;22.60;;
24435;SDS011;12616;52.470;13.436;2023-02-15T10:28:01;45.58;;;21.58;;
24435;SDS011;12616;52.470;13.436;2023-02-15T10:30:35;42.22;;;21.77;;
24435;SDS011;12616;52.470;13.436;2023-02-15T10:33:11;45.28;;;21.45;;
24435;SDS011;12616;52.470;13.436;2023-02-15T10:35:50;44.25;;;21.90;;
24435;SDS011;12616;52.470;13.436;2023-02-15T10:38:29;43.28;;;20.90;;
24435;SDS011;12616;52.470;13.436;2023-02-15T10:41:06;42.88;;;22.25;;
24435;SDS011;12616;52.470;13.436;2023-02-15T10:43:43;38.35;;;21.85;;
24435;SDS011;12616;52.470;13.436;2023-02-15T10:46:35;53.72;;;24.73;;
24435;SDS011;12616;52.470;13.436;2023-02-15T10:49:22;43.05;;;22.58;;
24435;SDS011;12616;52.470;13.436;2023-02-15T10:52:05;45.05;;;21.45;;
24435;SDS011;12616;52.470;13.436;2023-02-15T10:54:48;50.78;;;21.80;;
24435;SDS011;12616;52.470;13.436;2023-02-15T10:57:26;43.40;;;22.95;;
24435;SDS011;12616;52.470;13.436;2023-02-15T11:00:05;42.30;;;20.90;;
24435;SDS011;12616;52.470;13.436;2023-02-15T11:02:48;40.25;;;21.80;;
24435;SDS011;12616;52.470;13.436;2023-02-15T11:05:31;41.03;;;22.85;;
24435;SDS011;12616;52.470;13.436;2023-02-15T11:08:06;37.47;;;19.52;;
24435;SDS011;12616;52.470;13.436;2023-02-15T11:10:36;42.65;;;22.85;;
24435;SDS011;12616;52.470;13.436;2023-02-15T11:13:08;40.28;;;23.20;;
24435;SDS011;12616;52.470;13.436;2023-02-15T11:15:39;41.83;;;22.42;;
24435;SDS011;12616;52.470;13.436;2023-02-15T11:18:11;38.33;;;22.50;;
24435;SDS011;12616;52.470;13.436;2023-02-15T11:20:45;41.30;;;22.48;;
24435;SDS011;12616;52.470;13.436;2023-02-15T11:23:18;43.50;;;23.98;;
24435;SDS011;12616;52.470;13.436;2023-02-15T11:25:47;38.67;;;23.10;;
24435;SDS011;12616;52.470;13.436;2023-02-15T11:28:23;50.55;;;27.08;;
24435;SDS011;12616;52.470;13.436;2023-02-15T11:30:54;40.80;;;21.67;;
24435;SDS011;12616;52.470;13.436;2023-02-15T11:33:25;40.85;;;21.80;;
24435;SDS011;12616;52.470;13.436;2023-02-15T11:35:57;46.72;;;21.55;;
24435;SDS011;12616;52.470;13.436;2023-02-15T11:38:31;39.05;;;21.98;;
24435;SDS011;12616;52.470;13.436;2023-02-15T11:41:01;48.33;;;24.88;;
24435;SDS011;12616;52.470;13.436;2023-02-15T11:43:32;38.58;;;22.83;;
24435;SDS011;12616;52.470;13.436;2023-02-15T11:46:04;42.20;;;22.20;;
24435;SDS011;12616;52.470;13.436;2023-02-15T11:48:33;40.90;;;22.40;;
24435;SDS011;12616;52.470;13.436;2023-02-15T11:51:00;40.38;;;21.17;;
24435;SDS011;12616;52.470;13.436;2023-02-15T11:53:30;34.33;;;21.42;;
24435;SDS011;12616;52.470;13.436;2023-02-15T11:55:59;39.55;;;21.95;;
24435;SDS011;12616;52.470;13.436;2023-02-15T11:58:30;39.80;;;21.63;;
24435;SDS011;12616;52.470;13.436;2023-02-15T12:01:02;42.92;;;23.90;;
24435;SDS011;12616;52.470;13.436;2023-02-15T12:03:42;43.03;;;21.80;;
24435;SDS011;12616;52.470;13.436;2023-02-15T12:06:15;32.60;;;21.35;;
24435;SDS011;12616;52.470;13.436;2023-02-15T12:08:48;37.08;;;22.48;;
24435;SDS011;12616;52.470;13.436;2023-02-15T12:11:26;38.03;;;22.35;;
24435;SDS011;12616;52.470;13.436;2023-02-15T12:14:01;38.08;;;21.15;;
24435;SDS011;12616;52.470;13.436;2023-02-15T12:16:31;39.67;;;22.02;;
24435;SDS011;12616;52.470;13.436;2023-02-15T12:19:11;35.47;;;22.02;;
24435;SDS011;12616;52.470;13.436;2023-02-15T12:21:54;35.88;;;20.55;;
24435;SDS011;12616;52.470;13.436;2023-02-15T12:24:24;37.97;;;21.27;;
24435;SDS011;12616;52.470;13.436;2023-02-15T12:26:57;35.95;;;21.75;;
24435;SDS011;12616;52.470;13.436;2023-02-15T12:29:27;36.28;;;20.38;;
24435;SDS011;12616;52.470;13.436;2023-02-15T12:31:57;32.97;;;21.40;;
24435;SDS011;12616;52.470;13.436;2023-02-15T12:34:26;37.22;;;20.90;;
24435;SDS011;12616;52.470;13.436;2023-02-15T12:36:57;40.90;;;23.35;;
24435;SDS011;12616;52.470;13.436;2023-02-15T12:39:33;42.67;;;23.35;;
24435;SDS011;12616;52.470;13.436;2023-02-15T12:42:02;35.92;;;20.77;;
24435;SDS011;12616;52.470;13.436;2023-02-15T12:44:31;38.33;;;23.45;;
24435;SDS011;12616;52.470;13.436;2023-02-15T12:47:00;34.10;;;22.02;;
24435;SDS011;12616;52.470;13.436;2023-02-15T12:49:30;36.88;;;21.80;;
24435;SDS011;12616;52.470;13.436;2023-02-15T12:51:59;31.42;;;20.05;;
24435;SDS011;12616;52.470;13.436;2023-02-15T12:54:37;38.53;;;20.83;;
24435;SDS011;12616;52.470;13.436;2023-02-15T12:57:18;37.05;;;21.17;;
24435;SDS011;12616;52.470;13.436;2023-02-15T12:59:50;30.50;;;21.15;;
24435;SDS011;12616;52.470;13.436;2023-02-15T13:02:20;32.53;;;20.15;;
24435;SDS011;12616;52.470;13.436;2023-02-15T13:04:54;33.90;;;20.02;;
24435;SDS011;12616;52.470;13.436;2023-02-15T13:07:24;38.45;;;22.20;;
24435;SDS011;12616;52.470;13.436;2023-02-15T13:09:56;36.83;;;21.17;;
24435;SDS011;12616;52.470;13.436;2023-02-15T13:12:24;31.23;;;20.05;;
24435;SDS011;12616;52.470;13.436;2023-02-15T13:14:55;32.58;;;20.17;;
24435;SDS011;12616;52.470;13.436;2023-02-15T13:17:25;32.15;;;20.80;;
24435;SDS011;12616;52.470;13.436;2023-02-15T13:19:57;31.75;;;18.55;;
24435;SDS011;12616;52.470;13.436;2023-02-15T13:22:32;30.40;;;18.25;;
24435;SDS011;12616;52.470;13.436;2023-02-15T13:25:09;34.72;;;19.75;;
24435;SDS011;12616;52.470;13.436;2023-02-15T13:27:39;31.27;;;19.63;;
24435;SDS011;12616;52.470;13.436;2023-02-15T13:30:18;36.63;;;19.48;;
24435;SDS011;12616;52.470;13.436;2023-02-15T13:32:51;28.67;;;18.93;;
24435;SDS011;12616;52.470;13.436;2023-02-15T13:35:22;36.17;;;23.03;;
24435;SDS011;12616;52.470;13.436;2023-02-15T13:37:57;29.95;;;18.90;;
24435;SDS011;12616;52.470;13.436;2023-02-15T13:40:41;27.63;;;18.00;;
24435;SDS011;12616;52.470;13.436;2023-02-15T13:43:17;33.28;;;17.70;;
24435;SDS011;12616;52.470;13.436;2023-02-15T13:45:57;26.67;;;16.80;;
24435;SDS011;12616;52.470;13.436;2023-02-15T13:48:38;31.60;;;17.40;;
24435;SDS011;12616;52.470;13.436;2023-02-15T13:51:15;30.73;;;18.77;;
24435;SDS011;12616;52.470;13.436;2023-02-15T13:56:49;35.67;;;18.40;;
24435;SDS011;12616;52.470;13.436;2023-02-15T13:59:32;27.73;;;17.00;;
24435;SDS011;12616;52.470;13.436;2023-02-15T14:05:14;29.33;;;17.03;;
24435;SDS011;12616;52.470;13.436;2023-02-15T14:07:58;27.33;;;17.77;;
24435;SDS011;12616;52.470;13.436;2023-02-15T14:10:38;26.80;;;18.57;;
24435;SDS011;12616;52.470;13.436;2023-02-15T14:13:31;30.20;;;20.97;;
24435;SDS011;12616;52.470;13.436;2023-02-15T14:16:09;33.93;;;20.37;;
24435;SDS011;12616;52.470;13.436;2023-02-15T14:18:44;28.10;;;17.37;;
24435;SDS011;12616;52.470;13.436;2023-02-15T14:21:15;28.83;;;20.53;;
24435;SDS011;12616;52.470;13.436;2023-02-15T14:23:55;30.33;;;19.20;;
24435;SDS011;12616;52.470;13.436;2023-02-15T14:26:34;28.63;;;16.80;;
24435;SDS011;12616;52.470;13.436;2023-02-15T14:29:08;27.17;;;18.53;;
24435;SDS011;12616;52.470;13.436;2023-02-15T14:31:45;27.67;;;19.70;;
24435;SDS011;12616;52.470;13.436;2023-02-15T14:34:18;30.90;;;19.00;;
24435;SDS011;12616;52.470;13.436;2023-02-15T14:36:49;26.33;;;17.27;;
24435;SDS011;12616;52.470;13.436;2023-02-15T14:39:22;27.17;;;17.27;;
24435;SDS011;12616;52.470;13.436;2023-02-15T14:42:16;27.53;;;19.00;;
24435;SDS011;12616;52.470;13.436;2023-02-15T14:44:47;28.53;;;18.93;;
24435;SDS011;12616;52.470;13.436;2023-02-15T14:47:21;26.80;;;17.93;;
24435;SDS011;12616;52.470;13.436;2023-02-15T14:49:50;28.70;;;18.07;;